createdAt,value
2019-03-31T00:02:07.906Z,91.60
2019-03-31T00:04:36.396Z,91.60
2019-03-31T00:07:05.031Z,91.30
2019-03-31T00:09:33.564Z,91.50
2019-03-31T00:12:02.105Z,91.50
2019-03-31T00:14:30.839Z,91.70
2019-03-31T00:16:59.364Z,91.80
2019-03-31T00:19:27.884Z,92.00
2019-03-31T00:21:56.355Z,91.80
2019-03-31T00:24:24.798Z,92.10
2019-03-31T00:26:54.214Z,92.60
2019-03-31T00:29:42.248Z,93.20
2019-03-31T00:32:10.747Z,93.40
2019-03-31T00:34:39.297Z,93.50
2019-03-31T00:37:08.036Z,93.00
2019-03-31T00:39:36.528Z,93.00
2019-03-31T00:42:05.074Z,93.70
2019-03-31T00:44:33.581Z,93.60
2019-03-31T00:47:02.400Z,92.90
2019-03-31T00:49:31.018Z,92.90
2019-03-31T00:51:59.471Z,92.60
2019-03-31T00:54:28.051Z,92.60
2019-03-31T00:56:56.573Z,92.60
2019-03-31T00:59:25.047Z,92.40
2019-03-31T01:01:55.069Z,92.60
2019-03-31T01:04:26.140Z,92.70
2019-03-31T01:06:55.436Z,92.80
2019-03-31T01:09:28.630Z,92.70
2019-03-31T01:11:57.173Z,92.90
2019-03-31T01:14:26.624Z,93.20
2019-03-31T01:16:55.239Z,94.00
2019-03-31T01:19:24.798Z,94.00
2019-03-31T01:21:53.234Z,93.80
2019-03-31T01:24:21.711Z,93.60
2019-03-31T01:26:50.295Z,93.20
2019-03-31T01:29:19.115Z,93.00
2019-03-31T01:31:50.699Z,93.10
2019-03-31T01:34:18.640Z,93.10
2019-03-31T01:36:47.172Z,93.30
2019-03-31T01:39:15.927Z,93.40
2019-03-31T01:41:44.509Z,93.70
2019-03-31T01:44:13.226Z,93.90
2019-03-31T01:46:41.692Z,94.00
2019-03-31T01:49:10.227Z,94.10
2019-03-31T01:51:39.624Z,93.80
2019-03-31T01:54:08.178Z,93.70
2019-03-31T01:56:36.719Z,93.90
2019-03-31T01:59:05.171Z,94.50
2019-03-31T02:01:33.783Z,95.10
2019-03-31T02:04:02.305Z,95.00
2019-03-31T02:06:30.931Z,94.70
2019-03-31T02:08:59.404Z,94.50
2019-03-31T02:11:27.866Z,94.50
2019-03-31T02:13:56.305Z,94.30
2019-03-31T02:16:24.850Z,94.40
2019-03-31T02:18:53.300Z,94.40
2019-03-31T02:21:21.773Z,94.50
2019-03-31T02:23:50.235Z,94.40
2019-03-31T02:26:18.693Z,94.20
2019-03-31T02:28:47.153Z,94.10
2019-03-31T02:31:15.678Z,94.30
2019-03-31T02:33:44.149Z,94.20
2019-03-31T02:36:12.690Z,93.90
2019-03-31T02:38:41.143Z,93.80
2019-03-31T02:41:09.606Z,93.60
2019-03-31T02:43:38.050Z,93.60
2019-03-31T02:46:06.555Z,93.50
2019-03-31T02:48:34.985Z,93.50
2019-03-31T02:51:03.495Z,93.30
2019-03-31T02:53:32.105Z,93.90
2019-03-31T02:56:01.017Z,93.70
2019-03-31T02:58:30.055Z,93.90
2019-03-31T03:00:59.435Z,93.90
2019-03-31T03:03:29.791Z,94.20
2019-03-31T03:06:00.051Z,94.30
2019-03-31T03:08:30.954Z,94.30
2019-03-31T03:11:01.236Z,94.20
2019-03-31T03:13:31.898Z,93.90
2019-03-31T03:16:03.526Z,93.90
2019-03-31T03:18:32.400Z,94.00
2019-03-31T03:21:00.890Z,93.90
2019-03-31T03:23:29.372Z,94.00
2019-03-31T03:25:57.860Z,94.30
2019-03-31T03:28:26.332Z,94.40
2019-03-31T03:30:55.268Z,94.40
2019-03-31T03:33:23.962Z,94.80
2019-03-31T03:35:52.486Z,94.40
2019-03-31T03:38:20.952Z,94.40
2019-03-31T03:40:49.394Z,94.80
2019-03-31T03:43:17.886Z,95.10
2019-03-31T03:45:46.411Z,95.00
2019-03-31T03:48:14.903Z,95.00
2019-03-31T03:50:43.364Z,95.20
2019-03-31T03:53:11.844Z,95.30
2019-03-31T03:55:40.352Z,95.30
2019-03-31T03:58:08.871Z,95.40
2019-03-31T04:00:37.709Z,95.50
2019-03-31T04:03:06.247Z,95.60
2019-03-31T04:05:34.713Z,95.70
2019-03-31T04:08:03.192Z,95.90
2019-03-31T04:10:46.507Z,96.40
2019-03-31T04:13:15.456Z,96.40
2019-03-31T04:15:43.938Z,96.40
2019-03-31T04:18:12.443Z,96.70
2019-03-31T04:20:40.974Z,96.80
2019-03-31T04:23:09.488Z,97.00
2019-03-31T04:25:38.026Z,97.20
2019-03-31T04:28:06.573Z,97.30
2019-03-31T04:30:35.123Z,97.40
2019-03-31T04:33:03.601Z,98.30
2019-03-31T04:35:32.037Z,97.90
2019-03-31T04:38:00.515Z,97.80
2019-03-31T04:40:29.001Z,97.50
2019-03-31T04:42:57.473Z,97.30
2019-03-31T04:45:25.925Z,97.30
2019-03-31T04:47:54.394Z,97.30
2019-03-31T04:50:22.910Z,97.30
2019-03-31T04:52:51.392Z,97.90
2019-03-31T04:55:19.848Z,97.70
2019-03-31T04:57:48.355Z,97.70
2019-03-31T05:00:16.836Z,98.00
2019-03-31T05:02:45.286Z,98.50
2019-03-31T05:05:13.752Z,98.70
2019-03-31T05:07:42.291Z,98.90
2019-03-31T05:10:10.908Z,98.90
2019-03-31T05:12:39.357Z,98.90
2019-03-31T05:15:07.932Z,98.90
2019-03-31T05:17:36.428Z,98.70
2019-03-31T05:20:24.291Z,98.60
2019-03-31T05:22:53.070Z,98.40
2019-03-31T05:25:21.696Z,98.30
2019-03-31T05:27:50.152Z,98.40
2019-03-31T05:30:18.600Z,98.70
2019-03-31T05:32:47.087Z,98.90
2019-03-31T05:35:15.635Z,98.90
2019-03-31T05:37:50.739Z,98.70
2019-03-31T05:40:14.347Z,98.50
2019-03-31T05:42:42.799Z,98.30
2019-03-31T05:45:11.324Z,98.00
2019-03-31T05:47:39.771Z,98.00
2019-03-31T05:50:08.244Z,97.90
2019-03-31T05:52:36.680Z,97.80
2019-03-31T05:55:06.612Z,97.90
2019-03-31T05:57:35.067Z,98.10
2019-03-31T06:00:05.864Z,98.20
2019-03-31T06:02:34.335Z,98.00
2019-03-31T06:05:02.818Z,97.70
2019-03-31T06:07:31.268Z,97.80
2019-03-31T06:09:59.740Z,97.40
2019-03-31T06:12:31.893Z,97.10
2019-03-31T06:15:00.420Z,96.90
2019-03-31T06:17:28.947Z,96.60
2019-03-31T06:19:57.392Z,96.90
2019-03-31T06:22:25.853Z,97.20
2019-03-31T06:24:54.301Z,97.20
2019-03-31T06:27:22.776Z,97.00
2019-03-31T06:29:51.250Z,97.00
2019-03-31T06:32:19.709Z,96.70
2019-03-31T06:34:48.186Z,96.60
2019-03-31T06:37:16.709Z,96.60
2019-03-31T06:39:45.156Z,96.20
2019-03-31T06:42:13.627Z,96.20
2019-03-31T06:44:42.083Z,96.30
2019-03-31T06:47:10.553Z,96.80
2019-03-31T06:49:39.024Z,96.20
2019-03-31T06:52:07.494Z,96.40
2019-03-31T06:54:36.544Z,96.60
2019-03-31T06:57:05.044Z,96.40
2019-03-31T06:59:33.515Z,96.20
2019-03-31T07:02:03.334Z,95.90
2019-03-31T07:04:32.105Z,95.70
2019-03-31T07:07:00.544Z,95.60
2019-03-31T07:09:29.019Z,96.10
2019-03-31T07:11:57.487Z,96.00
2019-03-31T07:14:25.935Z,95.30
2019-03-31T07:16:54.407Z,95.10
2019-03-31T07:19:22.867Z,94.80
2019-03-31T07:21:51.331Z,94.10
2019-03-31T07:24:19.770Z,93.90
2019-03-31T07:26:48.258Z,93.80
2019-03-31T07:29:16.727Z,93.30
2019-03-31T07:31:45.201Z,92.70
2019-03-31T07:34:13.655Z,93.50
2019-03-31T07:36:42.143Z,93.10
2019-03-31T07:39:10.685Z,93.00
2019-03-31T07:41:39.481Z,93.10
2019-03-31T07:44:08.021Z,92.90
2019-03-31T07:46:36.561Z,92.60
2019-03-31T07:49:04.999Z,92.50
2019-03-31T07:51:33.482Z,92.40
2019-03-31T07:54:01.919Z,92.30
2019-03-31T07:56:30.354Z,92.60
2019-03-31T07:58:59.500Z,92.50
2019-03-31T08:01:28.019Z,92.30
2019-03-31T08:03:56.494Z,92.40
2019-03-31T08:06:24.963Z,92.60
2019-03-31T08:08:53.612Z,92.80
2019-03-31T08:11:22.152Z,92.80
2019-03-31T08:13:50.630Z,92.50
2019-03-31T08:16:19.062Z,92.50
2019-03-31T08:18:47.522Z,92.10
2019-03-31T08:21:15.991Z,91.70
2019-03-31T08:23:44.427Z,91.80
2019-03-31T08:26:12.892Z,91.00
2019-03-31T08:28:41.329Z,91.60
2019-03-31T08:31:09.794Z,91.20
2019-03-31T08:33:38.243Z,90.60
2019-03-31T08:36:06.706Z,90.60
2019-03-31T08:38:35.225Z,90.70
2019-03-31T08:41:03.869Z,90.70
2019-03-31T08:43:32.302Z,91.00
2019-03-31T08:46:00.770Z,91.00
2019-03-31T08:48:29.223Z,90.80
2019-03-31T08:50:57.666Z,90.60
2019-03-31T08:53:26.218Z,90.30
2019-03-31T08:55:54.654Z,90.40
2019-03-31T08:58:23.090Z,90.60
2019-03-31T09:00:53.193Z,90.40
2019-03-31T09:03:21.708Z,89.90
2019-03-31T09:06:01.071Z,90.10
2019-03-31T09:08:20.335Z,90.90
2019-03-31T09:10:48.795Z,90.60
2019-03-31T09:13:17.252Z,91.30
2019-03-31T09:15:45.699Z,91.20
2019-03-31T09:18:14.178Z,91.10
2019-03-31T09:20:42.622Z,90.90
2019-03-31T09:23:11.097Z,90.30
2019-03-31T09:25:39.622Z,90.40
2019-03-31T09:28:08.080Z,90.70
2019-03-31T09:30:36.565Z,90.90
2019-03-31T09:33:05.102Z,90.90
2019-03-31T09:35:33.562Z,90.70
2019-03-31T09:38:02.004Z,90.40
2019-03-31T09:40:30.462Z,90.40
2019-03-31T09:42:58.946Z,90.70
2019-03-31T09:45:27.407Z,90.10
2019-03-31T09:47:55.855Z,88.70
2019-03-31T09:50:24.316Z,88.00
2019-03-31T09:52:52.871Z,86.90
2019-03-31T09:55:23.082Z,88.40
2019-03-31T09:57:51.550Z,87.10
2019-03-31T10:00:31.882Z,85.00
2019-03-31T10:03:01.207Z,85.50
2019-03-31T10:05:29.899Z,85.60
2019-03-31T10:07:58.568Z,86.00
2019-03-31T10:10:32.245Z,86.80
2019-03-31T10:13:00.976Z,86.70
2019-03-31T10:15:29.487Z,88.00
2019-03-31T10:17:58.015Z,88.50
2019-03-31T10:20:26.519Z,89.50
2019-03-31T10:22:54.990Z,89.30
2019-03-31T10:25:23.543Z,89.00
2019-03-31T10:27:52.093Z,90.00
2019-03-31T10:30:32.054Z,88.90
2019-03-31T10:33:00.490Z,87.10
2019-03-31T10:35:29.034Z,86.70
2019-03-31T10:37:57.493Z,86.90
2019-03-31T10:40:25.939Z,85.00
2019-03-31T10:42:54.408Z,84.90
2019-03-31T10:45:22.842Z,85.10
2019-03-31T10:47:51.312Z,84.80
2019-03-31T10:50:19.798Z,84.30
2019-03-31T10:52:51.751Z,83.40
2019-03-31T10:55:20.230Z,78.30
2019-03-31T10:57:48.721Z,74.10
2019-03-31T11:00:20.306Z,74.60
2019-03-31T11:02:48.746Z,75.00
2019-03-31T11:05:17.350Z,77.40
2019-03-31T11:07:45.793Z,75.80
2019-03-31T11:10:15.040Z,75.60
2019-03-31T11:12:46.373Z,74.10
2019-03-31T11:15:14.897Z,74.00
2019-03-31T11:17:43.382Z,73.10
2019-03-31T11:20:11.918Z,70.20
2019-03-31T11:22:42.036Z,67.50
2019-03-31T11:25:20.614Z,65.80
2019-03-31T11:27:43.738Z,65.40
2019-03-31T11:30:11.706Z,65.20
2019-03-31T11:32:40.183Z,66.90
2019-03-31T11:35:08.707Z,67.30
2019-03-31T11:37:37.183Z,67.10
2019-03-31T11:40:07.462Z,66.90
2019-03-31T11:42:35.935Z,66.60
2019-03-31T11:45:06.411Z,66.60
2019-03-31T11:47:34.954Z,68.10
2019-03-31T11:50:05.045Z,69.60
2019-03-31T11:52:33.514Z,69.10
2019-03-31T11:55:01.955Z,67.90
2019-03-31T11:57:30.431Z,66.80
2019-03-31T11:59:58.919Z,67.30
2019-03-31T12:02:27.918Z,66.10
2019-03-31T12:04:56.507Z,65.30
2019-03-31T12:07:28.102Z,65.00
2019-03-31T12:09:55.136Z,63.70
2019-03-31T12:12:23.588Z,63.40
2019-03-31T12:15:00.296Z,63.30
2019-03-31T12:17:22.343Z,63.40
2019-03-31T12:19:50.798Z,63.50
2019-03-31T12:22:19.278Z,63.80
2019-03-31T12:24:47.731Z,63.10
2019-03-31T12:27:16.194Z,63.80
2019-03-31T12:29:44.670Z,64.90
2019-03-31T12:32:32.479Z,65.10
2019-03-31T12:35:00.916Z,64.60
2019-03-31T12:37:41.678Z,65.40
2019-03-31T12:39:59.562Z,65.90
2019-03-31T12:42:28.028Z,63.90
2019-03-31T12:44:56.519Z,65.20
2019-03-31T12:47:25.039Z,64.30
2019-03-31T12:49:53.498Z,64.80
2019-03-31T12:52:22.051Z,64.30
2019-03-31T12:54:50.499Z,64.10
2019-03-31T12:57:19.071Z,62.50
2019-03-31T12:59:47.542Z,62.60
2019-03-31T13:02:16.054Z,63.60
2019-03-31T13:04:44.531Z,63.20
2019-03-31T13:07:14.879Z,63.90
2019-03-31T13:09:43.178Z,65.40
2019-03-31T13:12:11.624Z,66.00
2019-03-31T13:14:40.098Z,65.10
2019-03-31T13:17:08.586Z,65.70
2019-03-31T13:19:37.057Z,66.00
2019-03-31T13:22:05.583Z,64.30
2019-03-31T13:24:34.131Z,61.50
2019-03-31T13:27:02.579Z,60.00
2019-03-31T13:29:31.059Z,59.10
2019-03-31T13:31:59.500Z,59.10
2019-03-31T13:34:27.961Z,59.30
2019-03-31T13:36:56.408Z,58.60
2019-03-31T13:39:24.875Z,59.00
2019-03-31T13:41:53.343Z,59.50
2019-03-31T13:44:21.790Z,60.20
2019-03-31T13:46:50.266Z,61.50
2019-03-31T13:49:18.715Z,61.80
2019-03-31T13:51:47.179Z,62.80
2019-03-31T13:54:15.659Z,61.80
2019-03-31T13:56:47.709Z,61.40
2019-03-31T13:59:14.294Z,59.70
2019-03-31T14:01:43.306Z,59.20
2019-03-31T14:04:12.439Z,57.80
2019-03-31T14:06:40.987Z,56.50
2019-03-31T14:09:10.002Z,56.30
2019-03-31T14:11:38.587Z,57.20
2019-03-31T14:14:07.078Z,56.20
2019-03-31T14:16:35.548Z,55.80
2019-03-31T14:19:04.259Z,55.90
2019-03-31T14:21:32.727Z,57.00
2019-03-31T14:24:01.198Z,57.60
2019-03-31T14:26:29.641Z,57.30
2019-03-31T14:28:58.121Z,56.90
2019-03-31T14:31:26.583Z,58.70
2019-03-31T14:33:55.018Z,56.60
2019-03-31T14:36:23.483Z,56.90
2019-03-31T14:38:52.022Z,56.00
2019-03-31T14:41:20.558Z,55.80
2019-03-31T14:43:49.039Z,57.00
2019-03-31T14:46:19.652Z,57.20
2019-03-31T14:48:47.654Z,58.00
2019-03-31T14:51:16.190Z,57.80
2019-03-31T14:53:44.639Z,56.40
2019-03-31T14:56:13.104Z,55.70
2019-03-31T14:58:41.541Z,54.80
2019-03-31T15:01:10.097Z,56.00
2019-03-31T15:03:38.561Z,57.20
2019-03-31T15:06:07.007Z,57.10
2019-03-31T15:08:35.483Z,56.80
2019-03-31T15:11:03.920Z,56.40
2019-03-31T15:13:32.395Z,54.90
2019-03-31T15:16:00.905Z,55.40
2019-03-31T15:18:29.375Z,55.80
2019-03-31T15:20:57.811Z,56.80
2019-03-31T15:23:29.587Z,58.00
2019-03-31T15:25:56.559Z,58.60
2019-03-31T15:28:25.136Z,58.40
2019-03-31T15:30:53.613Z,58.20
2019-03-31T15:33:22.058Z,57.60
2019-03-31T15:35:50.496Z,56.80
2019-03-31T15:38:18.963Z,56.60
2019-03-31T15:40:48.589Z,56.10
2019-03-31T15:43:17.271Z,55.50
2019-03-31T15:45:45.756Z,55.70
2019-03-31T15:48:14.203Z,56.10
2019-03-31T15:50:42.646Z,57.10
2019-03-31T15:53:11.127Z,57.90
2019-03-31T15:55:39.603Z,58.30
2019-03-31T15:58:08.047Z,58.70
2019-03-31T16:00:36.514Z,59.10
2019-03-31T16:03:05.050Z,59.20
2019-03-31T16:05:33.568Z,58.80
2019-03-31T16:08:02.035Z,59.00
2019-03-31T16:10:30.479Z,58.90
2019-03-31T16:12:58.957Z,59.00
2019-03-31T16:15:27.582Z,59.40
2019-03-31T16:17:56.067Z,58.90
2019-03-31T16:20:24.503Z,58.00
2019-03-31T16:22:52.990Z,57.90
2019-03-31T16:25:38.505Z,57.20
2019-03-31T16:28:06.977Z,56.80
2019-03-31T16:30:36.556Z,57.00
2019-03-31T16:33:07.050Z,57.30
2019-03-31T16:35:35.370Z,57.40
2019-03-31T16:38:03.882Z,58.50
2019-03-31T16:40:32.323Z,59.90
2019-03-31T16:43:00.791Z,60.60
2019-03-31T16:45:29.259Z,60.00
2019-03-31T16:47:57.699Z,59.90
2019-03-31T16:50:26.210Z,60.50
2019-03-31T16:52:54.755Z,61.70
2019-03-31T16:55:23.205Z,61.80
2019-03-31T16:57:51.673Z,61.20
2019-03-31T17:00:20.275Z,62.10
2019-03-31T17:02:48.717Z,62.50
2019-03-31T17:05:22.054Z,62.60
2019-03-31T17:07:47.434Z,62.60
2019-03-31T17:10:15.979Z,62.00
2019-03-31T17:12:44.430Z,60.60
2019-03-31T17:15:14.039Z,61.10
2019-03-31T17:17:42.479Z,60.50
2019-03-31T17:20:11.939Z,61.40
2019-03-31T17:22:40.469Z,61.60
2019-03-31T17:25:09.863Z,61.00
2019-03-31T17:27:38.330Z,61.70
2019-03-31T17:30:07.138Z,62.00
2019-03-31T17:32:35.571Z,62.40
2019-03-31T17:35:04.770Z,62.30
2019-03-31T17:37:33.290Z,62.60
2019-03-31T17:40:06.268Z,63.70
2019-03-31T17:42:31.899Z,63.60
2019-03-31T17:45:00.353Z,63.40
2019-03-31T17:47:28.824Z,64.30
2019-03-31T17:49:57.291Z,64.50
2019-03-31T17:52:25.732Z,64.90
2019-03-31T17:54:54.207Z,65.30
2019-03-31T17:57:22.742Z,66.30
2019-03-31T17:59:51.206Z,67.10
2019-03-31T18:02:19.675Z,67.50
2019-03-31T18:04:48.134Z,68.00
2019-03-31T18:07:16.578Z,68.40
2019-03-31T18:09:45.047Z,68.70
2019-03-31T18:12:13.522Z,69.00
2019-03-31T18:14:41.994Z,69.50
2019-03-31T18:17:10.530Z,69.90
2019-03-31T18:19:38.967Z,70.30
2019-03-31T18:22:16.316Z,70.50
2019-03-31T18:24:37.629Z,70.70
2019-03-31T18:27:06.101Z,71.40
2019-03-31T18:29:34.538Z,71.00
2019-03-31T18:32:03.015Z,70.80
2019-03-31T18:34:31.547Z,70.50
2019-03-31T18:36:59.986Z,70.10
2019-03-31T18:39:28.450Z,70.20
2019-03-31T18:41:56.910Z,69.80
2019-03-31T18:44:25.770Z,69.70
2019-03-31T18:46:54.255Z,70.20
2019-03-31T18:49:22.727Z,69.60
2019-03-31T18:51:51.186Z,69.30
2019-03-31T18:54:21.343Z,69.00
2019-03-31T18:56:51.513Z,69.60
2019-03-31T18:59:30.883Z,69.30
2019-03-31T19:02:16.343Z,69.30
2019-03-31T19:04:46.465Z,69.30
2019-03-31T19:07:22.829Z,69.40
2019-03-31T19:10:23.671Z,69.70
2019-03-31T19:12:50.623Z,69.20
2019-03-31T19:15:26.747Z,68.80
2019-03-31T19:17:59.775Z,68.80
2019-03-31T19:20:30.089Z,68.90
2019-03-31T19:23:16.326Z,69.00
2019-03-31T19:25:49.338Z,69.20
2019-03-31T19:28:19.462Z,69.30
2019-03-31T19:30:55.299Z,69.60
2019-03-31T19:33:30.867Z,70.20
2019-03-31T19:36:03.599Z,70.60
2019-03-31T19:38:33.727Z,71.10
2019-03-31T19:41:20.119Z,71.20
2019-03-31T19:43:56.198Z,71.60
2019-03-31T19:46:42.286Z,72.10
2019-03-31T19:49:12.423Z,72.60
2019-03-31T19:51:42.610Z,72.90
2019-03-31T19:54:13.520Z,73.40
2019-03-31T19:57:19.558Z,73.60
2019-03-31T19:59:52.331Z,74.20
2019-03-31T20:02:31.635Z,74.60
2019-03-31T20:05:01.755Z,74.90
2019-03-31T20:07:34.575Z,74.60
2019-03-31T20:10:14.218Z,75.10
2019-03-31T20:12:48.554Z,75.50
2019-03-31T20:15:34.848Z,75.60
2019-03-31T20:18:13.922Z,76.00
2019-03-31T20:20:52.541Z,76.60
2019-03-31T20:23:22.632Z,77.50
2019-03-31T20:25:52.718Z,77.60
2019-03-31T20:28:34.569Z,77.70
2019-03-31T20:31:04.651Z,77.80
2019-03-31T20:33:34.728Z,77.90
2019-03-31T20:36:29.995Z,77.60
2019-03-31T20:41:53.499Z,78.30
2019-03-31T20:44:21.966Z,78.70
2019-03-31T20:46:50.484Z,78.60
2019-03-31T20:49:18.955Z,78.40
2019-03-31T20:51:47.391Z,78.50
2019-03-31T20:54:15.864Z,78.60
2019-03-31T20:56:44.378Z,78.60
2019-03-31T20:59:12.832Z,78.90
2019-03-31T21:01:41.301Z,79.10
2019-03-31T21:04:09.771Z,79.70
2019-03-31T21:06:38.249Z,79.90
2019-03-31T21:09:08.462Z,80.50
2019-03-31T21:12:25.575Z,80.50
2019-03-31T21:14:54.010Z,80.30
2019-03-31T21:17:22.499Z,80.50
2019-03-31T21:19:50.931Z,80.80
2019-03-31T21:22:19.373Z,81.00
2019-03-31T21:24:47.933Z,81.30
2019-03-31T21:27:16.386Z,81.20
2019-03-31T21:29:44.827Z,81.70
2019-03-31T21:32:13.422Z,81.80
2019-03-31T21:34:41.907Z,82.40
2019-03-31T21:37:10.338Z,82.60
2019-03-31T21:39:38.802Z,82.70
2019-03-31T21:42:07.690Z,82.60
2019-03-31T21:44:36.119Z,82.50
2019-03-31T21:47:04.590Z,82.60
2019-03-31T21:49:33.119Z,83.10
2019-03-31T21:52:01.566Z,83.00
2019-03-31T21:54:30.022Z,83.40
2019-03-31T21:56:58.536Z,83.40
2019-03-31T21:59:27.008Z,83.50
2019-03-31T22:01:55.446Z,83.50
2019-03-31T22:04:23.915Z,84.00
2019-03-31T22:06:52.354Z,83.80
2019-03-31T22:09:20.790Z,83.90
2019-03-31T22:11:49.247Z,84.00
2019-03-31T22:14:17.685Z,84.20
2019-03-31T22:16:46.135Z,84.50
2019-03-31T22:19:14.599Z,84.80
2019-03-31T22:21:43.077Z,85.30
2019-03-31T22:24:11.515Z,85.50
2019-03-31T22:26:39.949Z,85.80
2019-03-31T22:29:08.420Z,85.80
2019-03-31T22:31:36.928Z,86.00
2019-03-31T22:34:05.397Z,86.10
2019-03-31T22:36:33.854Z,86.30
2019-03-31T22:39:02.314Z,86.30
2019-03-31T22:41:30.758Z,86.60
2019-03-31T22:43:59.225Z,86.60
2019-03-31T22:46:27.673Z,86.80
2019-03-31T22:48:56.139Z,86.90
2019-03-31T22:51:24.577Z,87.00
2019-03-31T22:53:53.114Z,88.10
2019-03-31T22:56:21.580Z,86.80
2019-03-31T22:58:50.024Z,87.10
2019-03-31T23:01:18.569Z,87.40
2019-03-31T23:03:47.005Z,87.40
2019-03-31T23:06:15.443Z,87.30
2019-03-31T23:08:43.915Z,87.30
2019-03-31T23:11:12.347Z,87.50
2019-03-31T23:13:40.815Z,87.40
2019-03-31T23:16:09.373Z,87.30
2019-03-31T23:18:37.996Z,87.70
2019-03-31T23:21:06.459Z,87.60
2019-03-31T23:23:34.930Z,88.30
2019-03-31T23:26:03.466Z,88.60
2019-03-31T23:28:32.367Z,88.70
2019-03-31T23:31:03.512Z,88.70
2019-03-31T23:33:30.999Z,88.70
2019-03-31T23:35:59.460Z,89.00
2019-03-31T23:38:27.926Z,88.90
2019-03-31T23:40:56.367Z,89.00
2019-03-31T23:43:24.840Z,89.30
2019-03-31T23:45:53.289Z,89.40
2019-03-31T23:48:21.755Z,89.50
2019-03-31T23:50:50.196Z,89.50
2019-03-31T23:53:18.657Z,89.40
2019-03-31T23:55:47.195Z,89.00
2019-03-31T23:58:15.641Z,89.20
